Time;durP1;ratioP1;P1;durP2;ratioP2;P2;SDS_P1;SDS_P2;PMS_P1;PMS_P2;Temp;Humidity;BMP_temperature;BMP_pressure;BME280_temperature;BME280_humidity;BME280_pressure;Samples;Min_cycle;Max_cycle;Signal;HPM_P1;HPM_P2
2022/12/10 00:01:55;;;;;;;30.40;14.83;;;;;;;6.38;89.83;96415.20;1635684;87;21389;-80
2022/12/10 00:04:21;;;;;;;26.65;13.93;;;;;;;6.42;89.97;96411.55;1635757;86;22257;-81
2022/12/10 00:06:48;;;;;;;25.02;13.85;;;;;;;6.44;90.06;96395.70;1610915;88;21026;-81
2022/12/10 00:09:17;;;;;;;26.65;13.88;;;;;;;6.50;90.28;96400.72;1612980;87;21470;-83
2022/12/10 00:11:44;;;;;;;25.25;13.58;;;;;;;6.53;90.35;96399.74;1613305;87;21051;-84
2022/12/10 00:14:13;;;;;;;26.42;13.28;;;;;;;6.58;90.15;96395.16;1610720;89;20972;-84
2022/12/10 00:16:43;;;;;;;27.60;12.53;;;;;;;6.62;90.29;96398.52;1610286;87;21040;-84
2022/12/10 00:19:10;;;;;;;24.18;12.45;;;;;;;6.66;90.49;96390.45;1605387;88;21060;-84
2022/12/10 00:21:36;;;;;;;22.50;11.28;;;;;;;6.77;90.51;96399.70;1603946;88;21055;-86
2022/12/10 00:24:04;;;;;;;34.00;11.55;;;;;;;6.84;90.61;96405.09;1633966;86;21008;-82
2022/12/10 00:26:39;;;;;;;24.87;11.08;;;;;;;6.91;90.44;96396.05;1622167;87;21804;-81
2022/12/10 00:29:10;;;;;;;22.77;11.28;;;;;;;6.98;90.38;96392.23;1609805;88;20984;-80
2022/12/10 00:31:38;;;;;;;23.30;11.20;;;;;;;6.99;89.95;96403.16;1606184;88;21076;-84
2022/12/10 00:34:08;;;;;;;23.20;11.33;;;;;;;6.99;89.96;96393.94;1627241;86;21530;-82
2022/12/10 00:36:42;;;;;;;24.65;11.12;;;;;;;7.02;90.26;96395.58;1630168;86;21437;-83
2022/12/10 00:39:13;;;;;;;26.52;11.57;;;;;;;7.05;90.22;96394.16;1632513;88;21078;-82
2022/12/10 00:41:40;;;;;;;23.67;11.38;;;;;;;7.05;90.16;96392.83;1632290;88;21022;-85
2022/12/10 00:44:09;;;;;;;29.87;12.53;;;;;;;7.06;90.17;96391.91;1632549;88;21058;-82
2022/12/10 00:46:35;;;;;;;24.47;11.88;;;;;;;7.06;90.07;96387.95;1633386;88;21026;-83
2022/12/10 00:49:01;;;;;;;21.90;10.82;;;;;;;7.07;89.93;96376.97;1633156;88;21035;-79
2022/12/10 00:51:30;;;;;;;23.90;11.53;;;;;;;7.03;89.65;96376.25;1633124;88;21416;-79
2022/12/10 00:53:58;;;;;;;25.50;11.43;;;;;;;7.00;89.60;96378.55;1609074;88;21033;-79
2022/12/10 00:56:30;;;;;;;24.10;11.22;;;;;;;6.95;89.43;96382.28;1632531;88;21050;-78
2022/12/10 00:58:57;;;;;;;20.40;11.33;;;;;;;6.91;89.59;96386.83;1633037;88;21033;-78
2022/12/10 01:01:31;;;;;;;22.22;11.20;;;;;;;6.87;89.48;96376.02;1632672;88;20974;-78
2022/12/10 01:04:06;;;;;;;21.07;10.88;;;;;;;6.83;89.36;96368.71;1631417;88;20998;-83
2022/12/10 01:06:38;;;;;;;22.02;10.60;;;;;;;6.77;89.45;96360.20;1629451;88;21009;-83
2022/12/10 01:09:08;;;;;;;24.65;11.73;;;;;;;6.72;89.56;96364.31;1632968;88;21049;-82
2022/12/10 01:11:39;;;;;;;19.70;10.72;;;;;;;6.69;89.56;96359.20;1625290;86;21054;-83
2022/12/10 01:14:11;;;;;;;21.30;11.03;;;;;;;6.66;89.82;96357.99;1633498;88;21030;-83
2022/12/10 01:16:38;;;;;;;24.05;11.43;;;;;;;6.64;89.87;96368.58;1633116;88;21034;-81
2022/12/10 01:19:05;;;;;;;24.30;11.73;;;;;;;6.63;89.99;96359.42;1632281;88;21070;-82
2022/12/10 01:21:34;;;;;;;26.15;12.65;;;;;;;6.64;90.25;96357.21;1630308;88;21015;-82
2022/12/10 01:24:02;;;;;;;31.85;12.65;;;;;;;6.65;90.23;96354.52;1632528;87;21020;-81
2022/12/10 01:26:32;;;;;;;22.90;11.75;;;;;;;6.68;90.16;96354.86;1633173;88;21022;-84
2022/12/10 01:29:02;;;;;;;31.90;12.90;;;;;;;6.70;90.23;96347.30;1632015;88;21400;-82
2022/12/10 01:31:36;;;;;;;23.07;12.03;;;;;;;6.71;90.26;96344.19;1624948;88;21057;-86
2022/12/10 01:34:05;;;;;;;24.12;11.55;;;;;;;6.73;90.27;96345.00;1633608;87;21046;-85
2022/12/10 01:36:37;;;;;;;24.57;11.97;;;;;;;6.74;90.39;96341.44;1625844;88;21074;-85
2022/12/10 01:39:08;;;;;;;25.12;11.40;;;;;;;6.75;90.08;96326.03;1634538;88;21049;-84
2022/12/10 01:41:42;;;;;;;22.95;11.15;;;;;;;6.74;90.41;96326.95;1632622;88;21043;-85
2022/12/10 01:44:16;;;;;;;21.35;10.98;;;;;;;6.76;90.39;96321.63;1617533;87;21065;-83
2022/12/10 01:46:47;;;;;;;20.60;11.28;;;;;;;6.77;90.42;96329.92;1628736;88;21426;-81
2022/12/10 01:49:19;;;;;;;23.30;10.63;;;;;;;6.79;90.35;96333.33;1629256;88;21413;-83
2022/12/10 01:51:51;;;;;;;29.35;11.43;;;;;;;6.79;90.41;96326.30;1629008;88;21001;-83
2022/12/10 01:54:29;;;;;;;21.75;11.78;;;;;;;6.83;90.33;96328.34;1628385;88;21017;-84
2022/12/10 01:57:21;;;;;;;19.70;11.00;;;;;;;6.84;90.30;96330.92;1628458;88;20993;-83
2022/12/10 01:59:54;;;;;;;23.73;10.70;;;;;;;6.84;90.61;96327.41;1628550;88;21009;-83
2022/12/10 02:02:32;;;;;;;21.12;10.28;;;;;;;6.82;90.53;96326.16;1628755;87;21447;-85
2022/12/10 02:05:22;;;;;;;27.80;11.55;;;;;;;6.84;90.32;96319.52;1624916;87;21062;-82
2022/12/10 02:08:15;;;;;;;25.17;10.32;;;;;;;6.84;90.55;96328.73;1631311;88;21005;-82
2022/12/10 02:11:23;;;;;;;28.73;10.45;;;;;;;6.84;90.43;96334.00;1630677;88;20997;-85
2022/12/10 02:14:20;;;;;;;23.00;10.10;;;;;;;6.85;90.49;96321.25;1631798;88;21078;-82
2022/12/10 02:16:55;;;;;;;23.15;10.55;;;;;;;6.83;90.51;96317.81;1629344;87;21009;-84
2022/12/10 02:19:42;;;;;;;26.07;9.98;;;;;;;6.85;90.85;96313.35;1628153;88;21054;-84
2022/12/10 02:22:10;;;;;;;24.20;9.23;;;;;;;6.88;90.79;96309.26;1627368;88;21592;-84
2022/12/10 02:24:39;;;;;;;23.15;9.40;;;;;;;6.89;90.91;96316.23;1631042;86;21043;-82
2022/12/10 02:27:20;;;;;;;21.12;9.45;;;;;;;6.92;90.88;96316.56;1631669;88;21431;-78
2022/12/10 02:29:49;;;;;;;20.90;8.50;;;;;;;6.95;91.02;96316.44;1632783;86;21014;-80
2022/12/10 02:32:21;;;;;;;25.48;9.68;;;;;;;6.98;91.29;96316.33;1633200;86;21505;-79
2022/12/10 02:34:55;;;;;;;22.90;9.05;;;;;;;7.00;91.54;96315.34;1649073;85;21487;-79
2022/12/10 02:37:30;;;;;;;18.57;8.50;;;;;;;7.02;91.59;96314.41;1666836;85;21421;-78
2022/12/10 02:40:08;;;;;;;13.98;7.62;;;;;;;7.03;91.52;96329.28;1656660;85;21122;-79
2022/12/10 02:42:40;;;;;;;22.10;8.40;;;;;;;7.04;91.62;96331.86;1661950;85;21070;-78
2022/12/10 02:45:08;;;;;;;23.20;9.20;;;;;;;7.08;92.52;96325.55;1652329;87;21067;-78
2022/12/10 02:47:37;;;;;;;17.57;7.90;;;;;;;7.12;92.06;96328.45;1679430;85;21085;-78
2022/12/10 02:50:06;;;;;;;22.82;7.95;;;;;;;7.15;91.86;96326.14;1652227;87;21046;-79
2022/12/10 02:52:33;;;;;;;16.70;8.40;;;;;;;7.20;92.11;96320.66;1679591;85;21046;-78
2022/12/10 02:55:00;;;;;;;21.48;7.45;;;;;;;7.26;92.65;96323.89;1652073;87;21040;-79
2022/12/10 02:57:43;;;;;;;18.25;7.55;;;;;;;7.35;92.75;96327.06;1679689;85;21384;-79
2022/12/10 03:00:18;;;;;;;20.20;8.05;;;;;;;7.43;92.83;96332.83;1637120;87;21490;-79
2022/12/10 03:03:22;;;;;;;17.50;7.20;;;;;;;7.46;93.10;96334.03;1673849;85;21046;-79
2022/12/10 03:06:16;;;;;;;19.10;7.58;;;;;;;7.50;92.60;96336.06;1679888;85;21037;-82
2022/12/10 03:09:05;;;;;;;13.35;7.35;;;;;;;7.49;93.23;96343.13;1645960;86;21441;-82
2022/12/10 03:11:32;;;;;;;19.73;8.65;;;;;;;7.53;93.22;96342.52;1671645;85;20976;-82
2022/12/10 03:14:11;;;;;;;19.52;8.78;;;;;;;7.56;93.31;96337.58;1681565;85;21025;-82
2022/12/10 03:16:51;;;;;;;21.90;9.05;;;;;;;7.56;93.28;96339.73;1682289;85;20992;-81
2022/12/10 03:19:22;;;;;;;27.45;9.03;;;;;;;7.57;93.10;96334.87;1676122;82;21104;-81
2022/12/10 03:21:52;;;;;;;20.95;8.45;;;;;;;7.58;93.23;96333.08;1673795;85;21016;-81
2022/12/10 03:24:22;;;;;;;19.10;8.75;;;;;;;7.61;94.12;96327.68;1653003;85;21030;-81
2022/12/10 03:26:52;;;;;;;22.75;9.33;;;;;;;7.67;93.57;96318.17;1680599;85;21032;-81
2022/12/10 03:29:30;;;;;;;24.10;8.18;;;;;;;7.66;93.32;96324.38;1679746;85;21029;-81
2022/12/10 03:31:59;;;;;;;20.97;8.35;;;;;;;7.65;93.54;96312.13;1679830;85;20990;-81
2022/12/10 03:34:25;;;;;;;27.32;9.75;;;;;;;7.65;93.43;96315.59;1675681;85;21022;-81
2022/12/10 03:36:55;;;;;;;19.55;8.93;;;;;;;7.66;94.43;96323.05;1671485;86;21070;-82
2022/12/10 03:39:27;;;;;;;22.87;10.43;;;;;;;7.68;93.99;96319.87;1671442;86;21578;-81
2022/12/10 03:41:58;;;;;;;18.67;9.03;;;;;;;7.67;94.48;96312.90;1671611;86;20989;-81
2022/12/10 03:44:36;;;;;;;23.95;10.10;;;;;;;7.67;94.01;96308.94;1648332;86;21031;-82
2022/12/10 03:47:07;;;;;;;18.70;9.23;;;;;;;7.60;94.52;96309.67;1658567;86;21033;-83
2022/12/10 03:49:35;;;;;;;18.48;9.40;;;;;;;7.57;93.96;96297.10;1671393;86;21392;-81
2022/12/10 03:52:01;;;;;;;29.50;9.28;;;;;;;7.49;93.62;96297.00;1671398;86;21013;-81
2022/12/10 03:54:31;;;;;;;18.62;10.23;;;;;;;7.45;93.73;96297.19;1671356;86;21050;-81
2022/12/10 03:56:59;;;;;;;22.37;9.95;;;;;;;7.40;94.30;96297.41;1660957;86;21064;-81
2022/12/10 03:59:27;;;;;;;18.90;9.40;;;;;;;7.38;93.91;96305.37;1644834;86;21092;-81
2022/12/10 04:01:54;;;;;;;22.58;9.98;;;;;;;7.35;94.17;96299.39;1696569;84;21421;-82
2022/12/10 04:04:21;;;;;;;21.20;9.50;;;;;;;7.31;94.37;96298.64;1714641;84;21009;-81
2022/12/10 04:06:48;;;;;;;19.00;9.93;;;;;;;7.29;95.15;96293.91;1715459;84;20942;-82
2022/12/10 04:09:17;;;;;;;23.32;9.63;;;;;;;7.29;95.03;96297.00;1715459;84;21411;-82
2022/12/10 04:11:44;;;;;;;18.90;10.32;;;;;;;7.28;94.79;96293.98;1715352;84;20977;-82
2022/12/10 04:16:59;;;;;;;18.32;9.30;;;;;;;7.19;95.04;96286.86;1715455;84;21013;-79
2022/12/10 04:19:27;;;;;;;26.23;10.13;;;;;;;7.15;94.87;96284.44;1715223;83;21012;-81
2022/12/10 04:27:27;;;;;;;23.70;9.45;;;;;;;7.06;94.97;96283.06;1676919;84;21132;-81
2022/12/10 04:29:57;;;;;;;19.17;9.67;;;;;;;7.00;95.44;96290.31;1715566;84;21005;-81
2022/12/10 04:32:32;;;;;;;24.25;9.85;;;;;;;6.97;95.37;96293.06;1715223;84;20954;-80
2022/12/10 04:34:59;;;;;;;23.73;10.48;;;;;;;6.96;96.27;96294.45;1715495;83;21044;-80
2022/12/10 04:37:28;;;;;;;18.60;10.40;;;;;;;6.95;95.84;96298.00;1715235;83;21065;-80
2022/12/10 04:39:55;;;;;;;19.40;10.78;;;;;;;6.95;95.80;96304.14;1715250;84;20993;-79
2022/12/10 04:42:24;;;;;;;18.02;9.30;;;;;;;6.90;95.62;96307.88;1715472;84;20972;-79
2022/12/10 04:44:50;;;;;;;18.10;9.63;;;;;;;6.85;95.69;96312.04;1695891;84;20957;-80
2022/12/10 04:47:18;;;;;;;17.42;9.80;;;;;;;6.83;95.75;96319.13;1715318;84;20951;-79
2022/12/10 04:49:45;;;;;;;19.32;10.30;;;;;;;6.80;95.70;96313.98;1715360;84;20969;-79
2022/12/10 04:52:16;;;;;;;22.42;9.60;;;;;;;6.75;95.73;96312.86;1715368;83;21387;-79
2022/12/10 04:54:44;;;;;;;23.42;11.12;;;;;;;6.73;95.89;96298.44;1711006;84;20985;-80
2022/12/10 04:57:13;;;;;;;19.52;9.25;;;;;;;6.69;95.87;96298.17;1694820;84;21020;-79
2022/12/10 04:59:40;;;;;;;20.85;9.70;;;;;;;6.66;96.53;96306.66;1715336;84;21391;-79
2022/12/10 05:02:06;;;;;;;24.55;10.18;;;;;;;6.69;96.62;96302.12;1715223;84;20972;-78
2022/12/10 05:04:34;;;;;;;25.15;9.70;;;;;;;6.68;96.17;96304.84;1715421;84;20997;-78
2022/12/10 05:07:01;;;;;;;21.37;9.88;;;;;;;6.65;96.10;96303.64;1715180;84;21000;-79
2022/12/10 05:09:30;;;;;;;19.27;9.70;;;;;;;6.64;97.48;96304.56;1715536;84;21008;-79
2022/12/10 05:11:57;;;;;;;22.50;10.20;;;;;;;6.64;96.65;96294.88;1715273;84;21105;-81
2022/12/10 05:14:30;;;;;;;23.80;11.12;;;;;;;6.61;96.49;96293.70;1716964;83;20996;-80
2022/12/10 05:16:57;;;;;;;22.20;10.60;;;;;;;6.63;96.12;96298.43;1716071;84;21020;-79
2022/12/10 05:19:25;;;;;;;20.35;11.35;;;;;;;6.65;96.18;96307.14;1715368;83;21370;-80
2022/12/10 05:24:41;;;;;;;22.22;11.00;;;;;;;6.70;96.86;96313.52;1715406;84;21080;-79
2022/12/10 05:27:10;;;;;;;17.90;10.08;;;;;;;6.76;96.85;96311.94;1715191;84;20996;-79
2022/12/10 05:29:38;;;;;;;18.27;9.03;;;;;;;6.80;96.72;96304.77;1715365;84;20965;-79
2022/12/10 05:32:05;;;;;;;17.00;9.20;;;;;;;6.86;97.01;96290.05;1715369;84;21057;-79
2022/12/10 05:34:34;;;;;;;16.80;8.60;;;;;;;6.95;97.51;96301.95;1709541;83;21051;-79
2022/12/10 05:37:05;;;;;;;17.50;8.45;;;;;;;7.03;96.96;96302.50;1696507;84;21043;-79
2022/12/10 05:39:35;;;;;;;13.00;8.63;;;;;;;7.06;96.84;96300.19;1696783;84;21000;-80
2022/12/10 05:42:09;;;;;;;18.37;8.40;;;;;;;7.10;96.93;96297.83;1671806;85;21052;-80
2022/12/10 05:44:42;;;;;;;17.00;8.20;;;;;;;7.09;96.46;96299.59;1673148;84;20972;-80
2022/12/10 05:47:14;;;;;;;15.03;8.35;;;;;;;7.16;97.13;96309.41;1688338;85;21109;-80
2022/12/10 05:49:47;;;;;;;15.05;8.60;;;;;;;7.18;97.35;96315.45;1694576;85;21102;-80
2022/12/10 05:52:16;;;;;;;;;;;;;;;7.21;96.54;96309.19;1698987;85;21028;-80
2022/12/10 05:54:45;;;;;;;16.67;8.90;;;;;;;7.24;96.99;96297.22;1691230;84;20361;-80
2022/12/10 05:57:12;;;;;;;13.35;7.95;;;;;;;7.24;96.82;96299.41;1682813;85;20984;-79
2022/12/10 05:59:43;;;;;;;13.85;8.25;;;;;;;7.30;96.82;96298.26;1696627;85;21016;-80
2022/12/10 06:02:10;;;;;;;15.38;7.50;;;;;;;7.32;96.90;96290.29;1696662;84;20981;-79
2022/12/10 06:04:37;;;;;;;14.05;7.53;;;;;;;7.34;96.93;96295.02;1696459;84;21024;-81
2022/12/10 06:07:04;;;;;;;14.03;7.60;;;;;;;7.30;96.66;96287.72;1696416;84;20980;-80
2022/12/10 06:09:32;;;;;;;13.75;8.03;;;;;;;7.32;97.06;96286.34;1696687;84;21484;-80
2022/12/10 06:11:58;;;;;;;13.15;7.47;;;;;;;7.30;96.58;96289.03;1696382;84;21048;-80
2022/12/10 06:14:24;;;;;;;16.73;8.73;;;;;;;7.27;96.35;96291.83;1696734;84;21032;-80
2022/12/10 06:16:51;;;;;;;27.00;9.48;;;;;;;7.25;96.56;96292.33;1696704;84;21007;-80
2022/12/10 06:19:18;;;;;;;17.17;8.65;;;;;;;7.18;96.09;96294.38;1696391;84;21402;-80
2022/12/10 06:21:44;;;;;;;18.75;8.20;;;;;;;7.15;96.07;96308.16;1696617;84;20976;-80
2022/12/10 06:24:11;;;;;;;16.15;8.60;;;;;;;7.08;96.41;96306.23;1696633;84;20984;-80
2022/12/10 06:26:37;;;;;;;16.12;8.68;;;;;;;7.04;96.33;96304.20;1696767;84;20957;-80
2022/12/10 06:29:04;;;;;;;16.42;9.18;;;;;;;6.99;96.27;96314.08;1696847;85;21454;-79
2022/12/10 06:31:31;;;;;;;19.77;9.70;;;;;;;6.96;96.89;96307.16;1696750;85;21051;-80
2022/12/10 06:33:57;;;;;;;15.23;9.55;;;;;;;6.92;96.51;96316.56;1673424;84;21013;-80
2022/12/10 06:36:24;;;;;;;14.30;9.13;;;;;;;6.87;96.44;96310.19;1696608;82;20992;-80
2022/12/10 06:38:50;;;;;;;15.55;9.50;;;;;;;6.84;96.52;96311.17;1696465;84;21608;-79
2022/12/10 06:41:20;;;;;;;21.25;11.25;;;;;;;6.82;96.85;96312.16;1696837;84;21000;-80
2022/12/10 06:43:48;;;;;;;22.70;11.33;;;;;;;6.81;97.96;96316.55;1680216;85;21019;-79
2022/12/10 06:46:19;;;;;;;18.67;10.13;;;;;;;6.84;97.62;96319.07;1693924;85;21083;-80
2022/12/10 06:48:47;;;;;;;20.27;9.93;;;;;;;6.83;97.25;96316.49;1696834;84;21091;-80
2022/12/10 06:51:14;;;;;;;21.45;10.53;;;;;;;6.80;97.16;96320.11;1696665;85;21088;-80
2022/12/10 06:53:42;;;;;;;26.10;12.13;;;;;;;6.78;97.28;96311.87;1696404;84;21087;-79
2022/12/10 06:56:16;;;;;;;22.05;11.97;;;;;;;6.73;97.12;96307.66;1696692;84;21477;-79
2022/12/10 06:58:43;;;;;;;30.20;12.73;;;;;;;6.71;98.24;96325.30;1696923;85;21016;-80
2022/12/10 07:01:27;;;;;;;19.70;11.48;;;;;;;6.71;97.89;96335.84;1696659;84;20949;-80
2022/12/10 07:03:56;;;;;;;28.33;15.13;;;;;;;6.70;97.56;96334.58;1697027;85;21008;-80
2022/12/10 07:06:28;;;;;;;23.95;13.80;;;;;;;6.71;97.96;96334.97;1696574;85;20996;-80
2022/12/10 07:08:55;;;;;;;27.05;13.95;;;;;;;6.73;98.02;96335.78;1696733;85;20988;-80
2022/12/10 07:11:24;;;;;;;27.27;14.73;;;;;;;6.72;97.57;96332.28;1696474;85;21019;-79
2022/12/10 07:13:52;;;;;;;26.40;14.45;;;;;;;6.73;98.33;96337.94;1696586;84;21030;-79
2022/12/10 07:16:23;;;;;;;24.20;14.35;;;;;;;6.76;98.62;96341.38;1696778;84;20996;-79
2022/12/10 07:18:51;;;;;;;26.05;14.00;;;;;;;6.80;98.41;96346.89;1696406;84;21150;-78
2022/12/10 07:21:23;;;;;;;29.82;15.28;;;;;;;6.82;98.39;96345.07;1696485;84;21418;-78
2022/12/10 07:23:57;;;;;;;27.82;15.30;;;;;;;6.83;99.10;96347.64;1696726;84;21088;-79
2022/12/10 07:26:26;;;;;;;25.97;14.95;;;;;;;6.85;98.54;96337.89;1696822;84;21525;-80
2022/12/10 07:28:54;;;;;;;26.70;15.88;;;;;;;6.87;98.15;96331.25;1638109;85;21039;-79
2022/12/10 07:31:22;;;;;;;28.98;15.53;;;;;;;6.88;98.50;96336.07;1696824;85;21468;-79
2022/12/10 07:33:50;;;;;;;31.68;15.60;;;;;;;6.89;98.46;96331.19;1696683;84;21410;-79
2022/12/10 07:36:18;;;;;;;31.60;16.65;;;;;;;6.91;98.60;96332.84;1711121;83;21073;-78
2022/12/10 07:38:45;;;;;;;27.80;16.95;;;;;;;6.92;99.30;96328.41;1715340;83;21005;-79
2022/12/10 07:41:13;;;;;;;31.97;19.52;;;;;;;6.97;98.50;96337.84;1715468;84;21000;-79
2022/12/10 07:43:42;;;;;;;33.98;18.67;;;;;;;7.03;98.61;96335.87;1699947;84;21079;-78
2022/12/10 07:46:19;;;;;;;29.07;18.07;;;;;;;7.09;98.58;96343.50;1711460;84;20984;-79
2022/12/10 07:48:50;;;;;;;42.48;19.10;;;;;;;7.16;98.49;96339.70;1715331;83;21089;-79
2022/12/10 07:51:20;;;;;;;30.35;17.37;;;;;;;7.22;98.56;96338.12;1715466;83;20973;-79
2022/12/10 07:53:48;;;;;;;28.17;16.52;;;;;;;7.30;98.58;96335.63;1715508;84;21101;-79
2022/12/10 07:56:14;;;;;;;32.10;18.48;;;;;;;7.37;98.93;96335.30;1715213;83;21036;-79
2022/12/10 07:58:44;;;;;;;28.23;15.78;;;;;;;7.44;99.18;96337.66;1715526;84;21501;-79
2022/12/10 08:01:15;;;;;;;30.92;16.25;;;;;;;7.53;98.64;96346.48;1715491;84;21012;-79
2022/12/10 08:03:44;;;;;;;32.85;16.55;;;;;;;7.62;99.08;96348.71;1715027;84;21021;-80
2022/12/10 08:06:16;;;;;;;32.48;16.45;;;;;;;7.66;98.75;96354.25;1715441;83;21104;-79
2022/12/10 08:08:45;;;;;;;26.15;15.53;;;;;;;7.72;98.57;96349.14;1715432;84;21255;-79
2022/12/10 08:11:14;;;;;;;25.02;15.28;;;;;;;7.76;98.50;96346.77;1715291;84;21028;-80
2022/12/10 08:13:42;;;;;;;29.77;16.30;;;;;;;7.79;98.27;96341.36;1715504;84;21033;-79
2022/12/10 08:16:19;;;;;;;33.65;17.57;;;;;;;7.85;98.80;96334.94;1715371;83;21084;-80
2022/12/10 08:18:47;;;;;;;31.77;19.07;;;;;;;7.92;98.86;96336.39;1715279;84;20968;-80
2022/12/10 08:21:22;;;;;;;35.78;17.70;;;;;;;7.98;98.79;96331.75;1674494;84;21532;-80
2022/12/10 08:23:50;;;;;;;28.60;17.73;;;;;;;8.03;99.19;96327.98;1715429;84;20984;-80
2022/12/10 08:26:21;;;;;;;30.55;17.23;;;;;;;8.13;99.18;96328.85;1691464;84;21057;-80
2022/12/10 08:28:51;;;;;;;50.05;29.25;;;;;;;8.24;99.70;96333.18;1712224;84;20977;-76
2022/12/10 08:31:19;;;;;;;44.33;23.73;;;;;;;8.35;98.92;96337.09;1715209;84;21396;-76
2022/12/10 08:33:46;;;;;;;34.08;20.23;;;;;;;8.36;98.58;96338.34;1715401;83;21051;-75
2022/12/10 08:36:15;;;;;;;30.75;18.55;;;;;;;8.41;98.89;96340.75;1715304;82;21097;-75
2022/12/10 08:38:42;;;;;;;36.75;19.55;;;;;;;8.48;98.80;96343.51;1710708;83;20988;-75
2022/12/10 08:41:19;;;;;;;30.65;20.05;;;;;;;8.57;99.08;96339.14;1715335;84;21422;-75
2022/12/10 08:43:47;;;;;;;28.47;19.50;;;;;;;8.63;98.71;96335.81;1696473;83;21011;-75
2022/12/10 08:46:15;;;;;;;29.07;19.60;;;;;;;8.68;98.53;96341.72;1684440;84;21052;-74
2022/12/10 08:48:43;;;;;;;38.60;19.00;;;;;;;8.70;98.22;96334.11;1685728;85;21141;-74
2022/12/10 08:51:14;;;;;;;37.60;21.07;;;;;;;8.76;97.84;96326.81;1684868;84;21422;-75
2022/12/10 08:53:42;;;;;;;37.78;20.80;;;;;;;8.81;98.30;96328.28;1699706;84;21027;-75
2022/12/10 08:56:11;;;;;;;31.33;20.25;;;;;;;8.88;98.00;96324.88;1682588;84;21017;-75
2022/12/10 08:58:38;;;;;;;34.85;22.32;;;;;;;8.94;98.30;96328.55;1683334;84;20993;-73
2022/12/10 09:01:16;;;;;;;39.08;21.12;;;;;;;9.00;98.32;96322.58;1687856;84;20985;-74
2022/12/10 09:03:43;;;;;;;43.75;25.02;;;;;;;9.02;98.12;96310.13;1707764;84;21028;-75
2022/12/10 09:06:17;;;;;;;45.98;28.55;;;;;;;9.03;97.86;96306.55;1704281;84;20961;-75
2022/12/10 09:08:44;;;;;;;40.38;25.05;;;;;;;9.02;97.61;96307.48;1704356;84;21051;-75
2022/12/10 09:11:20;;;;;;;30.95;21.95;;;;;;;8.98;97.36;96298.38;1706116;84;21103;-75
2022/12/10 09:13:49;;;;;;;39.20;23.30;;;;;;;8.98;97.54;96302.34;1711920;84;21037;-75
2022/12/10 09:16:19;;;;;;;51.75;25.48;;;;;;;8.99;97.55;96295.28;1708013;84;21044;-75
2022/12/10 09:18:46;;;;;;;36.88;22.55;;;;;;;8.99;97.57;96295.28;1708156;83;20984;-74
2022/12/10 09:21:16;;;;;;;36.03;23.02;;;;;;;9.01;97.49;96289.92;1699166;84;21387;-74
2022/12/10 09:23:43;;;;;;;33.42;21.42;;;;;;;9.02;97.47;96290.31;1699041;84;21024;-73
2022/12/10 09:26:15;;;;;;;42.50;25.00;;;;;;;9.02;97.12;96283.70;1705850;84;21004;-75
2022/12/10 09:28:46;;;;;;;43.63;26.30;;;;;;;9.03;97.13;96290.69;1708124;84;21005;-75
2022/12/10 09:31:20;;;;;;;43.80;28.17;;;;;;;9.04;97.17;96284.47;1709194;83;20996;-75
2022/12/10 09:33:54;;;;;;;46.02;28.27;;;;;;;9.04;97.17;96284.01;1707866;83;21048;-76
2022/12/10 09:36:22;;;;;;;43.33;26.07;;;;;;;9.09;97.46;96277.16;1700883;83;21016;-74
2022/12/10 09:38:51;;;;;;;36.53;24.63;;;;;;;9.13;97.42;96285.80;1676115;84;21140;-74
2022/12/10 09:41:56;;;;;;;38.65;23.50;;;;;;;9.14;97.29;96285.73;1677214;84;21471;-74
2022/12/10 09:44:46;;;;;;;36.33;23.27;;;;;;;9.17;97.13;96278.11;1683335;85;21027;-77
2022/12/10 09:47:13;;;;;;;37.67;24.00;;;;;;;9.20;97.09;96269.55;1691288;85;21032;-68
2022/12/10 09:50:25;;;;;;;42.55;25.10;;;;;;;9.25;97.15;96274.58;1671081;84;21030;-68
2022/12/10 09:52:54;;;;;;;39.03;25.85;;;;;;;9.30;97.06;96265.11;1661766;85;21118;-69
2022/12/10 09:55:26;;;;;;;39.90;26.33;;;;;;;9.31;97.36;96264.16;1667654;85;21612;-70
2022/12/10 09:57:53;;;;;;;39.25;26.40;;;;;;;9.31;97.17;96269.45;1666590;84;21353;-70
2022/12/10 10:00:36;;;;;;;44.08;26.02;;;;;;;9.33;97.15;96276.37;1667758;84;21004;-70
2022/12/10 10:03:06;;;;;;;40.88;26.68;;;;;;;9.36;97.14;96266.97;1668434;85;20992;-70
2022/12/10 10:05:41;;;;;;;46.68;27.05;;;;;;;9.42;97.27;96264.92;1665782;84;20981;-71
2022/12/10 10:08:20;;;;;;;35.70;26.07;;;;;;;9.48;97.30;96264.59;1682168;84;21019;-70
2022/12/10 10:10:49;;;;;;;42.53;26.07;;;;;;;9.56;97.23;96261.54;1687400;85;20988;-69
2022/12/10 10:13:34;;;;;;;38.88;26.10;;;;;;;9.61;97.12;96269.62;1672519;84;21099;-69
2022/12/10 10:16:28;;;;;;;40.28;26.40;;;;;;;9.67;97.19;96274.20;1669930;85;21079;-70
2022/12/10 10:19:13;;;;;;;49.00;29.70;;;;;;;9.70;97.06;96260.78;1686901;85;21063;-70
2022/12/10 10:21:46;;;;;;;49.18;31.02;;;;;;;9.75;96.89;96257.42;1689318;85;21468;-70
2022/12/10 10:24:20;;;;;;;55.85;31.15;;;;;;;9.82;96.63;96247.36;1675994;85;20973;-70
2022/12/10 10:26:49;;;;;;;;;;;;;;;9.87;96.77;96233.41;1669131;84;20987;-69
2022/12/10 10:29:20;;;;;;;51.68;30.95;;;;;;;10.00;96.91;96233.58;1695789;84;20138;-69
2022/12/10 10:31:52;;;;;;;51.65;30.88;;;;;;;10.16;97.28;96231.80;1694756;84;21381;-70
2022/12/10 10:34:22;;;;;;;41.50;28.90;;;;;;;10.40;97.75;96230.02;1681216;85;21055;-70
2022/12/10 10:37:00;;;;;;;42.35;25.68;;;;;;;10.66;96.51;96229.47;1678566;84;21000;-71
2022/12/10 10:39:31;;;;;;;42.73;27.60;;;;;;;10.86;96.29;96229.63;1681194;84;21024;-69
2022/12/10 10:42:00;;;;;;;39.55;26.62;;;;;;;10.99;96.60;96230.20;1673070;84;20955;-70
2022/12/10 10:44:32;;;;;;;42.00;27.30;;;;;;;11.10;96.01;96225.14;1677536;84;21039;-68
2022/12/10 10:46:58;;;;;;;44.05;26.68;;;;;;;11.53;97.11;96228.28;1695674;84;21397;-71
2022/12/10 10:49:29;;;;;;;47.20;31.35;;;;;;;12.21;96.43;96217.02;1678006;84;21016;-70
2022/12/10 10:52:10;;;;;;;36.68;25.05;;;;;;;13.09;94.33;96210.80;1676071;84;21401;-71
2022/12/10 10:54:44;;;;;;;39.08;22.85;;;;;;;14.10;94.37;96211.30;1667288;86;21016;-72
2022/12/10 10:57:35;;;;;;;31.30;22.37;;;;;;;15.30;88.29;96194.45;1680250;84;21096;-69
2022/12/10 11:00:24;;;;;;;38.17;25.43;;;;;;;15.76;87.16;96192.26;1674843;84;21027;-69
2022/12/10 11:02:51;;;;;;;36.63;25.55;;;;;;;15.79;84.38;96192.89;1674847;84;20995;-68
2022/12/10 11:05:25;;;;;;;38.45;26.17;;;;;;;15.41;86.14;96193.59;1686908;84;21047;-69
2022/12/10 11:08:07;;;;;;;36.28;25.92;;;;;;;15.34;85.67;96191.52;1677522;84;21022;-69
2022/12/10 11:10:34;;;;;;;31.87;23.73;;;;;;;15.79;85.52;96186.68;1674685;84;21043;-70
2022/12/10 11:13:07;;;;;;;29.52;23.05;;;;;;;16.05;80.81;96191.77;1684490;84;21011;-69
2022/12/10 11:15:40;;;;;;;32.45;24.18;;;;;;;16.02;81.48;96178.17;1681834;84;21484;-69
2022/12/10 11:18:35;;;;;;;36.35;24.07;;;;;;;15.73;81.20;96181.34;1669451;84;21166;-69
2022/12/10 11:21:21;;;;;;;34.38;23.52;;;;;;;15.41;81.71;96182.91;1676149;84;21473;-69
2022/12/10 11:23:54;;;;;;;28.15;21.52;;;;;;;14.94;80.87;96184.80;1671984;84;20995;-69
2022/12/10 11:26:46;;;;;;;29.72;18.57;;;;;;;14.56;81.55;96194.21;1672814;84;21043;-69
2022/12/10 11:29:49;;;;;;;27.13;18.65;;;;;;;14.73;82.16;96183.61;1673175;84;21091;-69
2022/12/10 11:32:47;;;;;;;27.93;18.77;;;;;;;15.13;80.15;96176.22;1671346;84;21011;-70
2022/12/10 11:35:36;;;;;;;24.90;16.60;;;;;;;15.31;79.72;96183.27;1637081;84;21123;-70
2022/12/10 11:38:16;;;;;;;27.73;16.90;;;;;;;15.23;80.19;96187.05;1669568;84;21079;-70
2022/12/10 11:41:15;;;;;;;18.30;14.68;;;;;;;15.10;80.29;96179.98;1679264;84;21049;-69
2022/12/10 11:44:15;;;;;;;23.98;15.50;;;;;;;14.80;78.65;96180.50;1678889;84;20992;-70
2022/12/10 11:47:07;;;;;;;20.27;13.75;;;;;;;14.54;78.67;96172.63;1664310;84;21077;-76
2022/12/10 11:50:15;;;;;;;21.07;12.53;;;;;;;14.30;79.08;96174.36;1663600;84;21462;-77
2022/12/10 11:53:18;;;;;;;18.42;13.40;;;;;;;14.08;79.79;96173.76;1653610;85;21009;-78
2022/12/10 11:56:13;;;;;;;20.43;14.53;;;;;;;13.98;80.68;96171.77;1661795;85;21006;-75
2022/12/10 11:58:46;;;;;;;20.17;14.55;;;;;;;13.85;80.28;96157.63;1662152;84;21004;-75
2022/12/10 12:01:21;;;;;;;21.27;15.00;;;;;;;13.73;80.48;96155.38;1662890;85;21550;-77
2022/12/10 12:04:03;;;;;;;20.48;15.30;;;;;;;13.66;80.96;96160.28;1658970;85;20965;-74